createdAt,value
2022-10-07T00:00:52.784Z,100.00
2022-10-07T00:03:38.460Z,100.00
2022-10-07T00:06:24.035Z,100.00
2022-10-07T00:09:09.666Z,100.00
2022-10-07T00:11:59.620Z,100.00
2022-10-07T00:14:45.459Z,100.00
2022-10-07T00:17:31.018Z,100.00
2022-10-07T00:20:16.700Z,100.00
2022-10-07T00:23:02.610Z,100.00
2022-10-07T00:25:48.372Z,100.00
2022-10-07T00:28:34.736Z,100.00
2022-10-07T00:31:23.543Z,100.00
2022-10-07T00:34:11.936Z,100.00
2022-10-07T00:36:57.869Z,100.00
2022-10-07T00:39:43.633Z,100.00
2022-10-07T00:42:30.534Z,100.00
2022-10-07T00:45:19.281Z,100.00
2022-10-07T00:48:04.990Z,100.00
2022-10-07T00:50:53.832Z,100.00
2022-10-07T00:53:41.194Z,100.00
2022-10-07T00:56:29.354Z,100.00
2022-10-07T00:59:15.937Z,100.00
2022-10-07T01:02:01.719Z,100.00
2022-10-07T01:04:48.851Z,100.00
2022-10-07T01:07:39.015Z,100.00
2022-10-07T01:10:31.256Z,100.00
2022-10-07T01:13:27.199Z,100.00
2022-10-07T01:16:27.581Z,100.00
2022-10-07T01:19:47.022Z,100.00
2022-10-07T01:22:55.039Z,100.00
2022-10-07T01:25:57.413Z,100.00
2022-10-07T01:28:56.807Z,100.00
2022-10-07T01:31:50.516Z,100.00
2022-10-07T01:34:39.077Z,100.00
2022-10-07T01:37:27.442Z,100.00
2022-10-07T01:40:21.495Z,100.00
2022-10-07T01:43:08.039Z,100.00
2022-10-07T01:45:55.207Z,100.00
2022-10-07T01:48:40.759Z,100.00
2022-10-07T01:51:29.811Z,100.00
2022-10-07T01:54:36.450Z,100.00
2022-10-07T01:57:44.486Z,100.00
2022-10-07T02:00:31.209Z,100.00
2022-10-07T02:03:32.030Z,100.00
2022-10-07T02:06:32.772Z,100.00
2022-10-07T02:09:30.442Z,100.00
2022-10-07T02:12:27.196Z,100.00
2022-10-07T02:15:20.147Z,100.00
2022-10-07T02:18:12.467Z,100.00
2022-10-07T02:20:59.609Z,100.00
2022-10-07T02:23:46.819Z,100.00
2022-10-07T02:26:34.042Z,100.00
2022-10-07T02:29:22.128Z,100.00
2022-10-07T02:32:12.887Z,100.00
2022-10-07T02:35:04.735Z,100.00
2022-10-07T02:37:54.371Z,100.00
2022-10-07T02:40:58.529Z,100.00
2022-10-07T02:43:50.685Z,100.00
2022-10-07T02:46:43.074Z,100.00
2022-10-07T02:49:31.360Z,100.00
2022-10-07T02:52:19.643Z,100.00
2022-10-07T02:55:09.693Z,100.00
2022-10-07T02:58:00.372Z,100.00
2022-10-07T03:00:52.907Z,100.00
2022-10-07T03:03:39.933Z,100.00
2022-10-07T03:06:29.530Z,100.00
2022-10-07T03:09:15.547Z,100.00
2022-10-07T03:12:01.406Z,100.00
2022-10-07T03:14:49.834Z,100.00
2022-10-07T03:17:35.433Z,100.00
2022-10-07T03:20:21.242Z,100.00
2022-10-07T03:23:06.616Z,100.00
2022-10-07T03:25:53.985Z,100.00
2022-10-07T03:28:39.897Z,100.00
2022-10-07T03:31:26.169Z,100.00
2022-10-07T03:34:12.073Z,100.00
2022-10-07T03:36:58.125Z,100.00
2022-10-07T03:39:43.753Z,100.00
2022-10-07T03:42:29.313Z,100.00
2022-10-07T03:45:14.757Z,100.00
2022-10-07T03:48:00.210Z,100.00
2022-10-07T03:50:50.919Z,100.00
2022-10-07T03:53:38.856Z,100.00
2022-10-07T03:56:24.977Z,100.00
2022-10-07T03:59:10.472Z,100.00
2022-10-07T04:01:55.822Z,100.00
2022-10-07T04:04:41.558Z,100.00
2022-10-07T04:07:27.606Z,100.00
2022-10-07T04:10:15.222Z,100.00
2022-10-07T04:13:01.278Z,100.00
2022-10-07T04:15:46.963Z,100.00
2022-10-07T04:18:32.585Z,100.00
2022-10-07T04:21:17.981Z,100.00
2022-10-07T04:24:03.461Z,100.00
2022-10-07T04:26:50.242Z,100.00
2022-10-07T04:29:39.175Z,100.00
2022-10-07T04:32:25.158Z,100.00
2022-10-07T04:35:10.667Z,100.00
2022-10-07T04:37:58.182Z,100.00
2022-10-07T04:40:49.072Z,100.00
2022-10-07T04:43:34.513Z,100.00
2022-10-07T04:46:19.994Z,100.00
2022-10-07T04:49:05.447Z,100.00
2022-10-07T04:51:50.849Z,100.00
2022-10-07T04:54:36.485Z,100.00
2022-10-07T04:57:21.931Z,100.00
2022-10-07T05:00:09.103Z,100.00
2022-10-07T05:02:55.052Z,100.00
2022-10-07T05:05:42.394Z,100.00
2022-10-07T05:08:28.388Z,100.00
2022-10-07T05:11:14.185Z,100.00
2022-10-07T05:14:01.955Z,100.00
2022-10-07T05:16:52.883Z,100.00
2022-10-07T05:19:39.338Z,100.00
2022-10-07T05:22:25.036Z,100.00
2022-10-07T05:25:10.779Z,100.00
2022-10-07T05:27:56.518Z,100.00
2022-10-07T05:30:42.242Z,100.00
2022-10-07T05:33:27.561Z,100.00
2022-10-07T05:36:13.124Z,100.00
2022-10-07T05:38:58.801Z,100.00
2022-10-07T05:41:46.073Z,100.00
2022-10-07T05:44:32.348Z,100.00
2022-10-07T05:47:18.850Z,100.00
2022-10-07T05:50:05.805Z,100.00
2022-10-07T05:52:51.923Z,100.00
2022-10-07T05:55:40.260Z,100.00
2022-10-07T05:58:26.105Z,100.00
2022-10-07T06:01:16.983Z,100.00
2022-10-07T06:04:03.155Z,100.00
2022-10-07T06:06:48.670Z,100.00
2022-10-07T06:09:52.524Z,100.00
2022-10-07T06:12:58.613Z,100.00
2022-10-07T06:15:44.163Z,100.00
2022-10-07T06:18:30.082Z,100.00
2022-10-07T06:21:15.962Z,100.00
2022-10-07T06:24:01.653Z,100.00
2022-10-07T06:26:48.621Z,100.00
2022-10-07T06:29:34.244Z,100.00
2022-10-07T06:32:19.791Z,100.00
2022-10-07T06:35:05.683Z,100.00
2022-10-07T06:37:51.301Z,100.00
2022-10-07T06:40:36.881Z,100.00
2022-10-07T06:43:22.409Z,100.00
2022-10-07T06:46:10.343Z,97.20
2022-10-07T06:48:55.878Z,96.89
2022-10-07T06:51:41.603Z,94.12
2022-10-07T06:54:27.017Z,90.98
2022-10-07T06:57:40.209Z,88.95
2022-10-07T07:00:18.049Z,87.91
2022-10-07T07:03:03.609Z,84.91
2022-10-07T07:05:54.536Z,82.02
2022-10-07T07:08:45.928Z,80.16
2022-10-07T07:11:38.121Z,78.23
2022-10-07T07:14:25.118Z,77.64
2022-10-07T07:17:11.886Z,75.52
2022-10-07T07:20:00.394Z,74.18
2022-10-07T07:22:46.312Z,72.83
2022-10-07T07:25:35.304Z,70.90
2022-10-07T07:28:20.810Z,70.19
2022-10-07T07:31:11.006Z,68.16
2022-10-07T07:34:00.766Z,66.89
2022-10-07T07:36:52.197Z,67.85
2022-10-07T07:39:38.209Z,65.76
2022-10-07T07:42:24.001Z,64.82
2022-10-07T07:45:09.727Z,63.24
2022-10-07T07:47:55.667Z,60.84
2022-10-07T07:50:41.111Z,60.23
2022-10-07T07:53:26.887Z,59.48
2022-10-07T07:56:13.579Z,58.30
2022-10-07T07:59:00.798Z,57.00
2022-10-07T08:01:55.484Z,57.69
2022-10-07T08:04:41.017Z,56.81
2022-10-07T08:07:30.838Z,56.43
2022-10-07T08:10:18.959Z,54.65
2022-10-07T08:13:07.114Z,53.63
2022-10-07T08:16:02.204Z,52.03
2022-10-07T08:18:49.767Z,53.12
2022-10-07T08:21:35.572Z,53.37
2022-10-07T08:24:30.062Z,52.17
2022-10-07T08:27:15.693Z,49.09
2022-10-07T08:30:03.084Z,48.30
2022-10-07T08:32:49.196Z,47.34
2022-10-07T08:35:36.951Z,46.99
2022-10-07T08:38:29.017Z,45.51
2022-10-07T08:41:36.385Z,45.08
2022-10-07T08:44:37.830Z,45.97
2022-10-07T08:47:39.824Z,43.21
2022-10-07T08:50:32.698Z,44.34
2022-10-07T08:53:29.313Z,42.04
2022-10-07T08:56:18.464Z,41.74
2022-10-07T08:59:13.384Z,41.13
2022-10-07T09:02:03.012Z,39.14
2022-10-07T09:05:06.971Z,42.27
2022-10-07T09:07:58.509Z,42.04
2022-10-07T09:10:52.715Z,42.10
2022-10-07T09:13:47.814Z,41.29
2022-10-07T09:16:43.671Z,39.42
2022-10-07T09:19:36.705Z,41.82
2022-10-07T09:22:33.767Z,39.56
2022-10-07T09:25:25.586Z,38.63
2022-10-07T09:28:17.544Z,38.32
2022-10-07T09:31:04.249Z,40.44
2022-10-07T09:33:52.988Z,38.52
2022-10-07T09:37:19.611Z,38.02
2022-10-07T09:40:31.752Z,36.25
2022-10-07T09:43:19.387Z,38.72
2022-10-07T09:46:07.886Z,39.67
2022-10-07T09:48:55.833Z,37.88
2022-10-07T09:51:41.432Z,37.39
2022-10-07T09:54:27.891Z,37.21
2022-10-07T09:57:25.721Z,38.94
2022-10-07T10:00:14.731Z,38.98
2022-10-07T10:03:08.199Z,35.88
2022-10-07T10:05:59.580Z,35.27
2022-10-07T10:08:45.676Z,35.63
2022-10-07T10:11:31.609Z,35.75
2022-10-07T10:14:35.518Z,38.49
2022-10-07T10:17:32.158Z,38.40
2022-10-07T10:20:23.811Z,36.69
2022-10-07T10:23:33.030Z,36.34
2022-10-07T10:26:56.407Z,35.47
2022-10-07T10:29:56.625Z,35.40
2022-10-07T10:32:49.580Z,35.24
2022-10-07T10:36:06.289Z,36.51
2022-10-07T10:39:16.008Z,35.98
2022-10-07T10:42:08.133Z,35.54
2022-10-07T10:44:57.239Z,36.10
2022-10-07T10:48:01.032Z,37.08
2022-10-07T10:50:57.743Z,36.63
2022-10-07T10:54:04.643Z,38.71
2022-10-07T10:57:05.519Z,40.68
2022-10-07T11:00:14.018Z,39.00
2022-10-07T11:03:26.850Z,36.55
2022-10-07T11:06:19.166Z,39.34
2022-10-07T11:09:07.081Z,35.15
2022-10-07T11:11:54.100Z,32.19
2022-10-07T11:14:47.810Z,36.66
2022-10-07T11:17:37.473Z,36.23
2022-10-07T11:20:48.111Z,38.13
2022-10-07T11:24:14.677Z,39.27
2022-10-07T11:27:24.999Z,39.49
2022-10-07T11:30:23.507Z,37.46
2022-10-07T11:33:17.614Z,36.39
2022-10-07T11:36:32.954Z,36.06
2022-10-07T11:39:19.447Z,35.15
2022-10-07T11:42:13.125Z,37.78
2022-10-07T11:45:08.655Z,35.48
2022-10-07T11:48:02.956Z,36.32
2022-10-07T11:50:56.168Z,36.52
2022-10-07T11:53:44.670Z,37.81
2022-10-07T11:56:45.943Z,38.23
2022-10-07T11:59:48.493Z,35.89
2022-10-07T12:02:40.203Z,36.54
2022-10-07T12:05:49.306Z,35.70
2022-10-07T12:08:42.383Z,36.63
2022-10-07T12:11:37.178Z,37.10
2022-10-07T12:14:34.107Z,36.36
2022-10-07T12:17:24.318Z,34.57
2022-10-07T12:20:35.410Z,33.96
2022-10-07T12:23:29.874Z,35.87
2022-10-07T12:26:31.696Z,39.62
2022-10-07T12:29:32.601Z,43.66
2022-10-07T12:32:53.386Z,46.40
2022-10-07T12:35:48.779Z,44.12
2022-10-07T12:38:39.633Z,39.50
2022-10-07T12:41:38.823Z,37.12
2022-10-07T12:44:41.119Z,37.58
2022-10-07T12:47:30.297Z,37.46
2022-10-07T12:50:19.861Z,40.59
2022-10-07T12:53:06.907Z,40.27
2022-10-07T12:55:56.191Z,38.75
2022-10-07T12:59:03.572Z,36.56
2022-10-07T13:02:20.778Z,35.37
2022-10-07T13:05:28.448Z,39.23
2022-10-07T13:08:36.229Z,40.17
2022-10-07T13:11:47.699Z,42.24
2022-10-07T13:14:42.748Z,40.36
2022-10-07T13:17:41.286Z,40.51
2022-10-07T13:20:37.684Z,40.27
2022-10-07T13:23:27.543Z,37.97
2022-10-07T13:26:15.386Z,39.30
2022-10-07T13:29:01.702Z,37.92
2022-10-07T13:32:03.874Z,36.86
2022-10-07T13:34:52.493Z,34.69
2022-10-07T13:37:45.428Z,37.54
2022-10-07T13:40:35.457Z,37.85
2022-10-07T13:43:25.010Z,40.61
2022-10-07T13:46:11.819Z,38.24
2022-10-07T13:49:00.013Z,37.78
2022-10-07T13:51:45.958Z,39.49
2022-10-07T13:54:33.885Z,39.84
2022-10-07T13:57:21.534Z,40.57
2022-10-07T14:00:12.422Z,40.63
2022-10-07T14:02:59.498Z,42.58
2022-10-07T14:05:52.443Z,43.62
2022-10-07T14:08:51.367Z,40.87
2022-10-07T14:11:37.336Z,38.32
2022-10-07T14:14:32.887Z,40.40
2022-10-07T14:17:34.057Z,43.06
2022-10-07T14:20:44.029Z,40.71
2022-10-07T14:23:34.088Z,40.88
2022-10-07T14:26:20.366Z,39.24
2022-10-07T14:29:35.731Z,38.32
2022-10-07T14:32:40.571Z,38.17
2022-10-07T14:35:27.545Z,37.34
2022-10-07T14:38:20.948Z,40.55
2022-10-07T14:41:08.226Z,40.79
2022-10-07T14:43:53.895Z,41.29
2022-10-07T14:46:42.900Z,42.34
2022-10-07T14:49:33.133Z,41.26
2022-10-07T14:52:25.025Z,42.27
2022-10-07T14:55:33.558Z,42.10
2022-10-07T14:58:18.890Z,42.44
2022-10-07T15:01:06.619Z,44.65
2022-10-07T15:03:52.670Z,45.22
2022-10-07T15:06:38.522Z,42.12
2022-10-07T15:09:24.887Z,43.95
2022-10-07T15:12:13.660Z,46.15
2022-10-07T15:15:00.232Z,50.03
2022-10-07T15:17:46.195Z,52.26
2022-10-07T15:20:32.747Z,54.35
2022-10-07T15:23:18.371Z,55.16
2022-10-07T15:26:04.377Z,55.78
2022-10-07T15:28:55.110Z,56.65
2022-10-07T15:31:42.924Z,59.44
2022-10-07T15:34:28.499Z,60.36
2022-10-07T15:37:14.382Z,58.57
2022-10-07T15:39:59.568Z,60.00
2022-10-07T15:42:45.630Z,60.46
2022-10-07T15:45:31.429Z,61.75
2022-10-07T15:48:21.260Z,62.37
2022-10-07T15:51:08.306Z,65.64
2022-10-07T15:53:54.192Z,63.95
2022-10-07T15:56:39.786Z,63.05
2022-10-07T15:59:25.207Z,66.04
2022-10-07T16:02:16.962Z,65.67
2022-10-07T16:05:03.509Z,65.59
2022-10-07T16:07:49.348Z,68.19
2022-10-07T16:10:37.017Z,69.33
2022-10-07T16:13:23.126Z,69.60
2022-10-07T16:16:14.304Z,70.67
2022-10-07T16:19:00.967Z,71.83
2022-10-07T16:21:46.405Z,71.09
2022-10-07T16:24:35.236Z,73.68
2022-10-07T16:27:21.088Z,74.64
2022-10-07T16:30:25.451Z,75.35
2022-10-07T16:33:11.344Z,75.74
2022-10-07T16:35:57.170Z,78.22
2022-10-07T16:38:43.161Z,82.34
2022-10-07T16:41:29.195Z,81.74
2022-10-07T16:44:15.551Z,80.97
2022-10-07T16:47:01.852Z,84.16
2022-10-07T16:49:47.792Z,87.35
2022-10-07T16:52:34.304Z,87.90
2022-10-07T16:55:19.658Z,85.64
2022-10-07T16:58:04.875Z,86.32
2022-10-07T17:00:50.940Z,87.86
2022-10-07T17:03:37.837Z,89.63
2022-10-07T17:06:25.744Z,90.70
2022-10-07T17:09:13.680Z,90.47
2022-10-07T17:11:59.533Z,90.70
2022-10-07T17:14:45.603Z,92.31
2022-10-07T17:17:31.158Z,93.02
2022-10-07T17:20:16.779Z,94.93
2022-10-07T17:23:04.060Z,98.20
2022-10-07T17:25:49.687Z,99.44
2022-10-07T17:28:36.002Z,98.71
2022-10-07T17:31:21.755Z,97.43
2022-10-07T17:34:07.499Z,98.19
2022-10-07T17:36:54.081Z,98.43
2022-10-07T17:39:39.500Z,97.65
2022-10-07T17:42:25.469Z,98.18
2022-10-07T17:45:12.235Z,98.22
2022-10-07T17:47:57.833Z,99.15
2022-10-07T17:50:43.699Z,97.68
2022-10-07T17:53:33.717Z,98.94
2022-10-07T17:56:19.963Z,100.00
2022-10-07T17:59:05.693Z,100.00
2022-10-07T18:01:51.248Z,100.00
2022-10-07T18:04:37.161Z,100.00
2022-10-07T18:07:23.031Z,100.00
2022-10-07T18:10:08.995Z,100.00
2022-10-07T18:13:12.840Z,100.00
2022-10-07T18:16:03.488Z,100.00
2022-10-07T18:18:57.107Z,100.00
2022-10-07T18:21:47.953Z,100.00
2022-10-07T18:24:33.875Z,100.00
2022-10-07T18:27:26.915Z,100.00
2022-10-07T18:30:12.695Z,100.00
2022-10-07T18:32:58.401Z,100.00
2022-10-07T18:35:44.058Z,100.00
2022-10-07T18:38:33.834Z,100.00
2022-10-07T18:41:20.222Z,100.00
2022-10-07T18:44:06.161Z,100.00
2022-10-07T18:46:51.932Z,100.00
2022-10-07T18:49:37.556Z,100.00
2022-10-07T18:52:23.067Z,100.00
2022-10-07T18:55:09.102Z,100.00
2022-10-07T18:57:54.865Z,100.00
2022-10-07T19:00:42.041Z,100.00
2022-10-07T19:03:28.740Z,100.00
2022-10-07T19:06:15.830Z,100.00
2022-10-07T19:09:07.704Z,100.00
2022-10-07T19:11:53.553Z,100.00
2022-10-07T19:14:39.006Z,100.00
2022-10-07T19:17:24.601Z,100.00
2022-10-07T19:20:11.167Z,100.00
2022-10-07T19:22:57.973Z,100.00
2022-10-07T19:25:47.074Z,100.00
2022-10-07T19:28:35.884Z,100.00
2022-10-07T19:31:35.884Z,100.00
2022-10-07T19:34:22.113Z,100.00
2022-10-07T19:37:07.903Z,100.00
2022-10-07T19:39:53.616Z,100.00
2022-10-07T19:42:39.085Z,100.00
2022-10-07T19:45:24.703Z,100.00
2022-10-07T19:48:14.344Z,100.00
2022-10-07T19:51:02.606Z,100.00
2022-10-07T19:53:48.470Z,100.00
2022-10-07T19:56:37.483Z,100.00
2022-10-07T19:59:23.895Z,100.00
2022-10-07T20:02:11.347Z,100.00
2022-10-07T20:04:57.345Z,100.00
2022-10-07T20:07:43.095Z,100.00
2022-10-07T20:10:29.052Z,100.00
2022-10-07T20:13:15.465Z,100.00
2022-10-07T20:16:16.754Z,100.00
2022-10-07T20:19:08.216Z,100.00
2022-10-07T20:21:54.326Z,100.00
2022-10-07T20:24:40.268Z,100.00
2022-10-07T20:27:26.261Z,100.00
2022-10-07T20:30:17.810Z,100.00
2022-10-07T20:33:03.565Z,100.00
2022-10-07T20:35:49.106Z,100.00
2022-10-07T20:38:54.141Z,100.00
2022-10-07T20:41:58.819Z,100.00
2022-10-07T20:44:46.305Z,100.00
2022-10-07T20:47:35.642Z,100.00
2022-10-07T20:50:21.537Z,100.00
2022-10-07T20:53:07.453Z,100.00
2022-10-07T20:55:53.363Z,100.00
2022-10-07T20:58:39.285Z,100.00
2022-10-07T21:01:26.249Z,100.00
2022-10-07T21:04:16.137Z,100.00
2022-10-07T21:07:03.005Z,100.00
2022-10-07T21:09:49.914Z,100.00
2022-10-07T21:12:36.824Z,100.00
2022-10-07T21:15:22.733Z,100.00
2022-10-07T21:18:10.648Z,100.00
2022-10-07T21:20:57.147Z,100.00
2022-10-07T21:23:44.469Z,100.00
2022-10-07T21:26:30.071Z,100.00
2022-10-07T21:29:16.119Z,100.00
2022-10-07T21:32:02.240Z,100.00
2022-10-07T21:34:48.007Z,100.00
2022-10-07T21:37:35.026Z,100.00
2022-10-07T21:40:21.475Z,100.00
2022-10-07T21:43:08.853Z,100.00
2022-10-07T21:45:58.952Z,100.00
2022-10-07T21:48:45.662Z,100.00
2022-10-07T21:51:32.321Z,100.00
2022-10-07T21:54:20.489Z,100.00
2022-10-07T21:57:08.396Z,100.00
2022-10-07T21:59:54.312Z,100.00
2022-10-07T22:02:40.667Z,100.00
2022-10-07T22:05:27.137Z,100.00
2022-10-07T22:08:35.157Z,100.00
2022-10-07T22:11:22.936Z,100.00
2022-10-07T22:14:12.497Z,100.00
2022-10-07T22:16:59.736Z,100.00
2022-10-07T22:19:46.685Z,100.00
2022-10-07T22:22:32.597Z,100.00
2022-10-07T22:25:18.319Z,100.00
2022-10-07T22:28:03.862Z,100.00
2022-10-07T22:30:50.417Z,100.00
2022-10-07T22:33:38.232Z,100.00
2022-10-07T22:36:25.158Z,100.00
2022-10-07T22:39:12.027Z,100.00
2022-10-07T22:41:58.966Z,100.00
2022-10-07T22:44:44.872Z,100.00
2022-10-07T22:47:30.581Z,100.00
2022-10-07T22:50:17.600Z,100.00
2022-10-07T22:53:04.611Z,100.00
2022-10-07T22:55:50.162Z,100.00
2022-10-07T22:58:36.386Z,100.00
2022-10-07T23:01:24.345Z,100.00
2022-10-07T23:04:11.251Z,100.00
2022-10-07T23:06:59.174Z,100.00
2022-10-07T23:09:45.072Z,100.00
2022-10-07T23:12:31.981Z,100.00
2022-10-07T23:15:20.894Z,100.00
2022-10-07T23:18:06.803Z,100.00
2022-10-07T23:21:07.739Z,100.00
2022-10-07T23:24:06.920Z,100.00
2022-10-07T23:26:53.669Z,100.00
2022-10-07T23:29:40.429Z,100.00
2022-10-07T23:32:26.467Z,100.00
2022-10-07T23:35:12.502Z,100.00
2022-10-07T23:38:00.401Z,100.00
2022-10-07T23:40:47.910Z,100.00
2022-10-07T23:43:34.986Z,100.00
2022-10-07T23:46:23.938Z,100.00
2022-10-07T23:49:11.778Z,100.00
2022-10-07T23:51:58.685Z,100.00
2022-10-07T23:54:47.632Z,100.00
2022-10-07T23:57:33.562Z,100.00
